Time;durP1;ratioP1;P1;durP2;ratioP2;P2;SDS_P1;SDS_P2;PMS_P1;PMS_P2;Temp;Humidity;BMP_temperature;BMP_pressure;BME280_temperature;BME280_humidity;BME280_pressure;Samples;Min_cycle;Max_cycle;Signal;HPM_P1;HPM_P2
2023/01/30 00:00:17;;;;;;;55.65;32.47;;;;;;;-146.25;98.06;52433.06;2079365;28;35383;-76
2023/01/30 00:01:24;;;;;;;54.25;32.15;;;;;;;-146.25;97.87;52469.56;2079714;28;40386;-76
2023/01/30 00:02:26;;;;;;;52.72;31.98;;;;;;;-146.25;98.29;52473.63;2079319;28;33419;-75
2023/01/30 00:03:28;;;;;;;53.85;32.15;;;;;;;-146.25;98.48;52489.84;2079551;28;37294;-76
2023/01/30 00:04:29;;;;;;;56.25;30.90;;;;;;;-146.25;98.23;52465.53;2078770;28;39670;-75
2023/01/30 00:05:31;;;;;;;51.67;31.60;;;;;;;-146.25;98.85;52471.59;2080065;28;31279;-75
2023/01/30 00:06:33;;;;;;;56.22;32.08;;;;;;;-146.25;98.53;52457.41;2087237;28;40435;-76
2023/01/30 00:07:34;;;;;;;54.15;31.50;;;;;;;-146.25;98.67;52465.53;2087740;28;37107;-76
2023/01/30 00:08:38;;;;;;;58.17;32.75;;;;;;;-146.25;98.80;52473.63;2079660;28;37083;-76
2023/01/30 00:09:43;;;;;;;58.88;32.58;;;;;;;-146.25;98.80;52485.81;2078780;28;42293;-76
2023/01/30 00:10:45;;;;;;;63.92;34.00;;;;;;;-146.25;99.11;52502.03;2079678;28;20030;-76
2023/01/30 00:11:47;;;;;;;56.60;31.55;;;;;;;-146.25;98.78;52453.34;2080511;28;23021;-76
2023/01/30 00:12:49;;;;;;;55.33;31.80;;;;;;;-146.25;98.86;52481.75;2078610;28;37710;-76
2023/01/30 00:13:51;;;;;;;57.42;32.80;;;;;;;-146.25;98.95;52443.22;2080213;28;20038;-75
2023/01/30 00:14:52;;;;;;;53.75;32.85;;;;;;;-146.25;99.03;52443.22;2079131;28;39297;-75
2023/01/30 00:15:56;;;;;;;61.45;32.78;;;;;;;-146.25;99.06;52497.97;2079765;28;35874;-75
2023/01/30 00:16:58;;;;;;;61.13;33.30;;;;;;;-146.25;99.08;52449.31;2079639;28;37771;-76
2023/01/30 00:18:00;;;;;;;56.67;33.78;;;;;;;-146.25;99.31;52439.16;2079048;28;40830;-76
2023/01/30 00:19:01;;;;;;;56.78;32.92;;;;;;;-146.25;99.26;52471.59;2071069;28;35769;-76
2023/01/30 00:20:03;;;;;;;58.28;33.40;;;;;;;-146.25;98.87;52500.00;2079463;28;38025;-76
2023/01/30 00:21:08;;;;;;;61.47;33.63;;;;;;;-146.25;98.90;52485.81;2087014;28;36719;-76
2023/01/30 00:22:09;;;;;;;60.92;33.58;;;;;;;-146.25;99.15;52481.75;2079083;28;33738;-76
2023/01/30 00:23:11;;;;;;;52.97;31.38;;;;;;;-146.25;99.02;52514.19;2078749;28;40638;-75
2023/01/30 00:24:13;;;;;;;57.05;32.50;;;;;;;-146.25;99.59;52439.16;2080187;28;34430;-76
2023/01/30 00:25:16;;;;;;;59.17;33.95;;;;;;;-146.25;99.08;52449.31;2087106;28;20045;-76
2023/01/30 00:26:17;;;;;;;54.20;33.17;;;;;;;-146.25;99.52;52491.88;2087432;28;41222;-76
2023/01/30 00:27:19;;;;;;;56.58;33.80;;;;;;;-146.25;98.97;52491.88;2080281;28;20034;-75
2023/01/30 00:28:22;;;;;;;57.10;32.03;;;;;;;-146.25;99.42;52453.34;2087921;28;28117;-75
2023/01/30 00:29:24;;;;;;;53.42;32.42;;;;;;;-146.25;99.70;52518.25;2087482;28;31193;-75
2023/01/30 00:30:26;;;;;;;54.05;32.53;;;;;;;-146.25;99.42;52493.91;2087733;28;20084;-75
2023/01/30 00:31:31;;;;;;;57.97;33.28;;;;;;;-146.25;99.87;52471.59;2087343;28;20223;-76
2023/01/30 00:32:33;;;;;;;57.30;33.35;;;;;;;-146.25;99.50;52473.63;2087881;28;24949;-76
2023/01/30 00:33:37;;;;;;;53.17;31.60;;;;;;;-146.25;99.32;52497.97;2079364;28;32414;-75
2023/01/30 00:34:39;;;;;;;54.53;31.67;;;;;;;-146.25;99.74;52473.63;2087236;28;35269;-75
2023/01/30 00:35:47;;;;;;;54.88;32.53;;;;;;;-146.25;99.33;52469.56;2087814;28;20046;-76
2023/01/30 00:36:49;;;;;;;54.85;32.78;;;;;;;-146.25;99.75;52459.44;2070756;28;35364;-76
2023/01/30 00:38:06;;;;;;;55.47;31.35;;;;;;;-146.25;99.26;52461.47;2068826;28;23533;-76
2023/01/30 00:39:08;;;;;;;59.50;31.67;;;;;;;-146.25;99.62;52455.38;2073517;28;20128;-76
2023/01/30 00:40:10;;;;;;;57.72;32.50;;;;;;;-146.25;99.63;52481.75;2062537;28;27386;-75
2023/01/30 00:41:14;;;;;;;58.78;31.00;;;;;;;-146.25;99.36;52469.56;2071414;28;26594;-76
2023/01/30 00:47:53;;;;;;;52.90;31.13;;;;;;;-146.25;99.47;52431.06;2079077;28;26560;-75
2023/01/30 00:48:55;;;;;;;50.88;30.10;;;;;;;-146.25;98.96;52483.78;2079704;28;30990;-75
2023/01/30 00:49:57;;;;;;;56.45;32.00;;;;;;;-146.25;99.50;52445.25;2079450;28;20041;-76
2023/01/30 00:50:58;;;;;;;58.55;32.08;;;;;;;-146.25;99.51;52461.47;2070970;28;35385;-75
2023/01/30 00:52:04;;;;;;;58.28;31.95;;;;;;;-146.25;99.17;52467.56;2079221;28;20042;-75
2023/01/30 00:53:05;;;;;;;59.33;32.85;;;;;;;-146.25;99.12;52475.66;2080505;28;20046;-75
2023/01/30 00:54:07;;;;;;;56.50;31.63;;;;;;;-146.25;99.52;52506.06;2079463;28;40883;-75
2023/01/30 00:55:11;;;;;;;53.03;32.08;;;;;;;-146.25;99.43;52463.50;2079522;28;31126;-76
2023/01/30 00:56:14;;;;;;;53.83;32.22;;;;;;;-146.25;99.51;52491.88;2078737;28;30741;-76
2023/01/30 00:57:15;;;;;;;56.60;33.28;;;;;;;-146.25;99.45;52473.63;2079240;28;29143;-75
2023/01/30 00:58:18;;;;;;;58.85;31.52;;;;;;;-146.25;99.08;52437.13;2080228;28;20038;-76
2023/01/30 00:59:19;;;;;;;54.97;32.45;;;;;;;-146.25;99.49;52441.19;2078986;28;35500;-76
2023/01/30 01:00:22;;;;;;;54.00;30.15;;;;;;;-146.25;99.39;52451.31;2078484;28;27871;-76
2023/01/30 01:01:26;;;;;;;50.47;30.15;;;;;;;-146.25;99.07;52443.22;2080101;28;20192;-76
2023/01/30 01:02:28;;;;;;;54.00;31.40;;;;;;;-146.25;99.13;52465.53;2079362;28;21081;-76
2023/01/30 01:03:30;;;;;;;57.38;31.70;;;;;;;-146.25;99.14;52473.63;2080347;28;20046;-76
2023/01/30 01:04:41;;;;;;;50.75;30.98;;;;;;;-146.25;98.83;52469.56;2078485;28;36452;-75
2023/01/30 01:05:45;;;;;;;54.42;31.27;;;;;;;-146.25;99.01;52481.75;2079533;28;20123;-76
2023/01/30 01:06:47;;;;;;;55.10;33.05;;;;;;;-146.25;99.55;52497.97;2079723;28;20053;-75
2023/01/30 01:07:49;;;;;;;58.33;32.33;;;;;;;-146.25;98.85;52451.31;2087429;28;20903;-75
2023/01/30 01:08:51;;;;;;;56.88;32.47;;;;;;;-146.25;99.01;52422.94;2079195;28;20119;-76
2023/01/30 01:09:53;;;;;;;53.90;31.20;;;;;;;-146.25;99.06;52457.41;2071073;28;29127;-76
2023/01/30 01:10:55;;;;;;;53.08;31.77;;;;;;;-146.25;98.71;52465.53;2078765;28;20038;-75
2023/01/30 01:11:57;;;;;;;55.08;30.98;;;;;;;-146.25;99.29;52475.66;2087227;28;36680;-76
2023/01/30 01:12:59;;;;;;;51.08;31.75;;;;;;;-146.25;98.93;52467.56;2087166;28;20131;-75
2023/01/30 01:14:03;;;;;;;55.05;31.58;;;;;;;-146.25;99.38;52469.56;2078727;28;27770;-76
2023/01/30 01:15:06;;;;;;;55.83;31.30;;;;;;;-146.25;99.38;52481.75;2078791;28;30853;-75
2023/01/30 01:16:09;;;;;;;56.13;31.95;;;;;;;-146.25;99.68;52471.59;2062919;28;38593;-76
2023/01/30 01:17:11;;;;;;;54.72;31.92;;;;;;;-146.25;99.54;52473.63;2063630;28;29906;-76
2023/01/30 01:18:13;;;;;;;52.35;31.55;;;;;;;-146.25;99.16;52477.69;2080802;28;25650;-76
2023/01/30 01:19:17;;;;;;;53.05;30.52;;;;;;;-146.25;99.04;52485.81;2081211;28;21923;-76
2023/01/30 01:20:19;;;;;;;51.90;31.55;;;;;;;-146.25;99.76;52463.50;2081114;28;31954;-76
2023/01/30 01:21:22;;;;;;;53.85;30.83;;;;;;;-146.25;99.28;52477.69;2079780;28;26270;-76
2023/01/30 01:22:24;;;;;;;52.38;31.30;;;;;;;-146.25;99.24;52495.94;2073014;28;20034;-75
2023/01/30 01:23:25;;;;;;;52.63;30.08;;;;;;;-146.25;99.11;52443.22;2072578;28;21006;-76
2023/01/30 01:24:27;;;;;;;54.85;32.47;;;;;;;-146.25;99.75;52481.75;2080742;28;37068;-76
2023/01/30 01:25:29;;;;;;;55.72;32.45;;;;;;;-146.25;99.11;52463.50;2079817;28;30404;-76
2023/01/30 01:26:31;;;;;;;55.95;32.97;;;;;;;-146.25;99.64;52475.66;2080450;28;28484;-76
2023/01/30 01:27:33;;;;;;;53.38;32.20;;;;;;;-146.25;99.66;52506.06;2088884;28;28921;-77
2023/01/30 01:28:35;;;;;;;51.72;30.40;;;;;;;-146.25;99.18;52439.16;2080138;28;33160;-76
2023/01/30 01:29:37;;;;;;;56.45;31.58;;;;;;;-146.25;99.72;52487.81;2079795;28;37771;-76
2023/01/30 01:30:38;;;;;;;56.30;32.53;;;;;;;-146.25;99.31;52451.31;2072259;28;35570;-76
2023/01/30 01:31:44;;;;;;;52.38;30.98;;;;;;;-146.25;99.92;52500.00;2081114;28;20038;-76
2023/01/30 01:32:46;;;;;;;55.88;32.15;;;;;;;-146.25;99.75;52469.56;2088568;28;38072;-76
2023/01/30 01:33:49;;;;;;;53.17;31.33;;;;;;;-146.25;99.54;52473.63;2080213;28;27791;-76
2023/01/30 01:34:51;;;;;;;57.05;32.22;;;;;;;-146.25;99.59;52506.06;2073341;28;20168;-76
2023/01/30 01:35:57;;;;;;;54.20;32.05;;;;;;;-146.25;100.00;52453.34;2080984;28;20089;-76
2023/01/30 01:36:58;;;;;;;54.50;31.30;;;;;;;-146.25;100.00;52473.63;2081227;28;27235;-76
2023/01/30 01:38:00;;;;;;;50.05;30.23;;;;;;;-146.25;99.57;52469.56;2080343;28;20042;-76
2023/01/30 01:39:03;;;;;;;52.38;32.33;;;;;;;-146.25;99.87;52455.38;2080631;28;32143;-76
2023/01/30 01:41:26;;;;;;;57.50;31.45;;;;;;;-146.25;100.00;52502.03;2061195;28;32610;-75
2023/01/30 01:42:34;;;;;;;54.33;30.88;;;;;;;-146.25;100.00;52457.41;2075005;28;20042;-75
2023/01/30 01:44:09;;;;;;;61.08;32.05;;;;;;;-146.25;100.00;52443.22;2083800;28;20038;-75
2023/01/30 01:45:19;;;;;;;56.30;31.02;;;;;;;-146.25;100.00;52475.66;2081174;28;20034;-75
2023/01/30 01:46:33;;;;;;;58.95;31.70;;;;;;;-146.25;100.00;52483.78;2074510;28;27444;-75
2023/01/30 01:47:36;;;;;;;62.50;32.00;;;;;;;-146.25;100.00;52481.75;2071770;28;39882;-75
2023/01/30 01:48:49;;;;;;;62.30;33.40;;;;;;;-146.25;100.00;52471.59;2064466;28;28857;-75
2023/01/30 01:49:51;;;;;;;55.70;30.15;;;;;;;-146.25;100.00;52516.22;2065171;28;38051;-75
2023/01/30 01:50:59;;;;;;;58.30;33.15;;;;;;;-146.25;100.00;52485.81;2072867;28;38399;-75
2023/01/30 01:52:12;;;;;;;61.60;32.77;;;;;;;-146.25;100.00;52473.63;2080727;28;20046;-75
2023/01/30 01:53:19;;;;;;;59.58;32.20;;;;;;;-146.25;100.00;52465.53;2080935;28;26268;-75
2023/01/30 01:54:35;;;;;;;60.40;32.95;;;;;;;-146.25;100.00;52461.47;2088256;28;20168;-76
2023/01/30 01:55:41;;;;;;;60.60;32.95;;;;;;;-146.25;100.00;52449.31;2087243;28;20042;-75
2023/01/30 01:56:46;;;;;;;60.83;33.33;;;;;;;-146.25;100.00;52481.75;2072192;28;20033;-76
2023/01/30 01:57:57;;;;;;;62.65;33.22;;;;;;;-146.25;100.00;52487.81;2073994;28;23075;-75
2023/01/30 01:59:07;;;;;;;64.72;34.03;;;;;;;-146.25;100.00;52483.78;2080048;28;33398;-76
2023/01/30 02:00:14;;;;;;;64.13;34.55;;;;;;;-146.25;100.00;52453.34;2080599;28;26781;-75
2023/01/30 02:01:16;;;;;;;62.92;33.97;;;;;;;-146.25;100.00;52459.44;2071937;28;20169;-76
2023/01/30 02:02:22;;;;;;;58.83;33.00;;;;;;;-146.25;100.00;52495.94;2073603;28;20042;-75
2023/01/30 02:03:29;;;;;;;65.93;34.65;;;;;;;-146.25;100.00;52471.59;2081295;28;20038;-76
2023/01/30 02:05:59;;;;;;;67.20;33.92;;;;;;;-146.25;100.00;52477.69;2076041;28;21213;-75
2023/01/30 02:07:01;;;;;;;61.63;32.88;;;;;;;-146.25;100.00;52475.66;2079824;28;32424;-76
2023/01/30 02:08:26;;;;;;;65.43;33.35;;;;;;;-146.25;100.00;52461.47;2080755;28;20030;-76
2023/01/30 02:09:28;;;;;;;60.25;33.40;;;;;;;-146.25;100.00;52461.47;2080094;28;27855;-76
2023/01/30 02:10:53;;;;;;;61.67;33.20;;;;;;;-146.25;100.00;52481.75;2072284;28;20038;-76
2023/01/30 02:11:59;;;;;;;59.17;33.22;;;;;;;-146.25;100.00;52443.22;2080878;28;30961;-76
2023/01/30 02:13:02;;;;;;;65.13;34.08;;;;;;;-146.25;100.00;52481.75;2079875;28;36066;-75
2023/01/30 02:14:05;;;;;;;68.63;35.38;;;;;;;-146.25;100.00;52485.81;2080482;28;28978;-75
2023/01/30 02:15:07;;;;;;;60.50;34.45;;;;;;;-146.25;100.00;52457.41;2071342;28;40175;-75
2023/01/30 02:16:09;;;;;;;58.72;33.20;;;;;;;-146.25;100.00;52485.81;2072564;28;43898;-76
2023/01/30 02:17:11;;;;;;;67.20;33.35;;;;;;;-146.25;100.00;52477.69;2088119;28;20068;-76
2023/01/30 02:18:14;;;;;;;64.43;34.03;;;;;;;-146.25;100.00;52485.81;2079889;28;38682;-75
2023/01/30 02:19:49;;;;;;;62.08;35.10;;;;;;;-146.25;100.00;52463.50;2063957;28;31517;-76
2023/01/30 02:21:09;;;;;;;57.50;32.70;;;;;;;-146.25;100.00;52451.31;2081518;28;30002;-75
2023/01/30 02:22:55;;;;;;;61.97;31.77;;;;;;;-146.25;100.00;52469.56;2078539;28;20050;-75
2023/01/30 02:24:38;;;;;;;56.17;30.83;;;;;;;-146.25;100.00;52459.44;2087892;28;20042;-76
2023/01/30 02:26:23;;;;;;;57.03;30.48;;;;;;;-146.25;100.00;52453.34;2081983;28;37369;-76
2023/01/30 02:28:21;;;;;;;58.63;30.63;;;;;;;-146.25;100.00;52508.09;2088382;28;20080;-76
2023/01/30 02:30:00;;;;;;;52.63;29.67;;;;;;;-146.25;100.00;52487.81;2065039;28;20039;-76
2023/01/30 02:31:34;;;;;;;52.65;27.30;;;;;;;-146.25;100.00;52502.03;2081290;28;20161;-76
2023/01/30 02:33:09;;;;;;;53.03;29.33;;;;;;;-146.25;100.00;52477.69;2071543;28;26521;-76
2023/01/30 02:34:27;;;;;;;53.90;28.58;;;;;;;-146.25;100.00;52467.56;2080319;28;28077;-76
2023/01/30 02:35:39;;;;;;;53.40;27.60;;;;;;;-146.25;100.00;52481.75;2080877;28;20192;-76
2023/01/30 02:36:53;;;;;;;54.25;29.45;;;;;;;-146.25;100.00;52481.75;2080288;28;20943;-76
2023/01/30 02:38:02;;;;;;;51.58;30.30;;;;;;;-146.25;100.00;52439.16;2087864;28;37410;-76
2023/01/30 02:39:21;;;;;;;55.47;30.23;;;;;;;-146.25;100.00;52439.16;2080398;28;20038;-76
2023/01/30 02:41:06;;;;;;;57.25;29.42;;;;;;;-146.25;100.00;52459.44;2074633;28;20369;-76
2023/01/30 02:42:19;;;;;;;47.10;27.10;;;;;;;-146.25;100.00;52467.56;2078370;28;20073;-76
2023/01/30 02:43:45;;;;;;;46.47;26.23;;;;;;;-146.25;100.00;52465.53;2071759;28;20058;-76
2023/01/30 02:45:35;;;;;;;49.03;27.17;;;;;;;-146.25;100.00;52497.97;2070580;28;20050;-76
2023/01/30 02:46:52;;;;;;;55.08;27.65;;;;;;;-146.25;100.00;52463.50;2082750;28;25058;-76
2023/01/30 02:48:01;;;;;;;47.20;26.92;;;;;;;-146.25;100.00;52469.56;2071633;28;41644;-76
2023/01/30 02:49:33;;;;;;;52.58;27.35;;;;;;;-146.25;100.00;52471.59;2067934;28;20058;-76
2023/01/30 02:50:48;;;;;;;46.67;24.73;;;;;;;-146.25;100.00;52502.03;2084744;28;23471;-76
2023/01/30 02:51:51;;;;;;;47.50;25.67;;;;;;;-146.25;100.00;52463.50;2079522;28;40226;-76
2023/01/30 02:52:53;;;;;;;43.90;26.52;;;;;;;-146.25;100.00;52422.94;2071706;28;30082;-76
2023/01/30 02:53:57;;;;;;;48.67;26.92;;;;;;;-146.25;100.00;52471.59;2064157;28;20824;-76
2023/01/30 02:55:01;;;;;;;50.25;27.00;;;;;;;-146.25;100.00;52493.91;2056724;28;20048;-76
2023/01/30 02:56:03;;;;;;;50.97;26.65;;;;;;;-146.25;100.00;52493.91;2073273;28;20054;-76
2023/01/30 02:57:22;;;;;;;46.50;26.48;;;;;;;-146.25;100.00;52477.69;2080056;28;20045;-76
2023/01/30 02:58:32;;;;;;;;;;;;;;;-146.25;100.00;52485.81;2058925;28;20043;-76
2023/01/30 02:59:44;;;;;;;41.25;23.30;;;;;;;-146.25;100.00;52469.56;2067256;28;20776;-76
2023/01/30 03:01:11;;;;;;;44.08;24.13;;;;;;;-146.25;100.00;52441.19;2063292;28;20054;-76
2023/01/30 03:02:22;;;;;;;41.45;24.15;;;;;;;-146.25;100.00;52483.78;2069485;28;20074;-76
2023/01/30 03:04:25;;;;;;;42.00;24.35;;;;;;;-146.25;100.00;52504.03;2071930;28;20176;-76
2023/01/30 03:06:08;;;;;;;36.80;21.60;;;;;;;-146.25;100.00;52469.56;2071876;28;20089;-76
2023/01/30 03:07:25;;;;;;;36.60;20.73;;;;;;;-146.25;100.00;52475.66;2068675;28;20042;-76
2023/01/30 03:08:51;;;;;;;35.55;20.65;;;;;;;-146.25;100.00;52465.53;2064156;28;20109;-76
2023/01/30 03:10:05;;;;;;;36.55;20.95;;;;;;;-146.25;100.00;52463.50;2067473;28;20995;-75
2023/01/30 03:11:11;;;;;;;37.70;20.58;;;;;;;-146.25;100.00;52455.38;2057704;28;20125;-76
2023/01/30 03:12:48;;;;;;;37.25;20.88;;;;;;;-146.25;100.00;52483.78;2048971;28;20044;-76
2023/01/30 03:14:01;;;;;;;33.10;18.25;;;;;;;-146.25;100.00;52453.34;2069138;28;20045;-76
2023/01/30 03:15:29;;;;;;;34.70;19.80;;;;;;;-146.25;100.00;52479.72;2080771;28;20041;-76
2023/01/30 03:16:37;;;;;;;34.78;19.92;;;;;;;-146.25;100.00;52485.81;2071900;28;20042;-76
2023/01/30 03:17:44;;;;;;;34.22;18.58;;;;;;;-146.25;100.00;52479.72;2059567;28;30888;-76
2023/01/30 03:18:49;;;;;;;29.83;17.85;;;;;;;-146.25;100.00;52453.34;2050994;28;20928;-76
2023/01/30 03:19:53;;;;;;;33.72;19.30;;;;;;;-146.25;100.00;52465.53;2064936;28;20154;-76
2023/01/30 03:20:55;;;;;;;28.95;17.90;;;;;;;-146.25;100.00;52475.66;2078961;28;37070;-76
2023/01/30 03:22:00;;;;;;;29.85;18.23;;;;;;;-146.25;100.00;52477.69;2079236;28;29190;-76
2023/01/30 03:23:02;;;;;;;33.17;17.35;;;;;;;-146.25;100.00;52487.81;2079694;28;20041;-76
2023/01/30 03:24:04;;;;;;;27.73;16.83;;;;;;;-146.25;100.00;52487.81;2071540;28;20042;-76
2023/01/30 03:25:07;;;;;;;26.08;16.42;;;;;;;-146.25;100.00;52493.91;2071971;28;20030;-76
2023/01/30 03:26:18;;;;;;;25.08;15.20;;;;;;;-146.25;100.00;52437.13;2071873;28;21501;-76
2023/01/30 03:27:21;;;;;;;24.35;14.85;;;;;;;-146.25;100.00;52463.50;2073493;28;20042;-76
2023/01/30 03:28:24;;;;;;;25.33;15.63;;;;;;;-146.25;100.00;52471.59;2072977;28;20153;-76
2023/01/30 03:29:27;;;;;;;27.73;15.82;;;;;;;-146.25;100.00;52473.63;2072185;28;20039;-75
2023/01/30 03:30:29;;;;;;;22.88;14.90;;;;;;;-146.25;100.00;52447.28;2071968;28;24863;-76
2023/01/30 03:31:39;;;;;;;21.25;13.73;;;;;;;-146.25;100.00;52489.84;2080182;28;20038;-76
2023/01/30 03:32:42;;;;;;;21.90;14.23;;;;;;;-146.25;100.00;52508.09;2071469;28;20042;-76
2023/01/30 03:33:44;;;;;;;22.20;13.05;;;;;;;-146.25;100.00;52487.81;2080669;28;20049;-76
2023/01/30 03:34:46;;;;;;;20.35;13.30;;;;;;;-146.25;100.00;52489.84;2079654;28;20851;-76
2023/01/30 03:35:49;;;;;;;21.20;12.88;;;;;;;-146.25;100.00;52449.31;2080122;28;20034;-76
2023/01/30 03:36:51;;;;;;;20.02;12.27;;;;;;;-146.25;100.00;52502.03;2087537;28;20238;-76
2023/01/30 03:37:53;;;;;;;17.73;11.82;;;;;;;-146.25;100.00;52506.06;2081263;28;20038;-75
2023/01/30 03:38:55;;;;;;;21.80;12.68;;;;;;;-146.25;100.00;52475.66;2079632;28;20524;-77
2023/01/30 03:39:58;;;;;;;21.35;12.63;;;;;;;-146.25;100.00;52493.91;2079617;28;20041;-74
2023/01/30 03:41:03;;;;;;;21.90;12.27;;;;;;;-146.25;100.00;52479.72;2080444;28;20040;-76
2023/01/30 03:42:08;;;;;;;18.70;11.65;;;;;;;-146.25;100.00;52463.50;2079885;28;20099;-77
2023/01/30 03:43:09;;;;;;;17.95;11.32;;;;;;;-146.25;100.00;52502.03;2071571;28;20042;-76
2023/01/30 03:44:17;;;;;;;16.90;10.65;;;;;;;-146.25;100.00;52465.53;2072181;28;20731;-76
2023/01/30 03:45:19;;;;;;;19.75;10.57;;;;;;;-146.25;100.00;52447.28;2079737;28;20078;-76
2023/01/30 03:46:21;;;;;;;16.73;10.02;;;;;;;-146.25;100.00;52512.16;2079631;28;20038;-76
2023/01/30 03:47:23;;;;;;;21.25;10.77;;;;;;;-146.25;100.00;52465.53;2079757;28;20056;-76
2023/01/30 03:48:27;;;;;;;19.27;10.57;;;;;;;-146.25;100.00;52475.66;2080062;28;20169;-76
2023/01/30 03:49:29;;;;;;;16.08;9.13;;;;;;;-146.25;100.00;52497.97;2079993;28;20100;-76
2023/01/30 03:50:34;;;;;;;15.70;8.75;;;;;;;-146.25;100.00;52461.47;2079850;28;21029;-76
2023/01/30 03:51:36;;;;;;;17.10;8.90;;;;;;;-146.25;100.00;52469.56;2071589;28;20050;-76
2023/01/30 03:52:40;;;;;;;18.75;8.55;;;;;;;-146.25;100.00;52475.66;2072087;28;20042;-76
2023/01/30 03:53:45;;;;;;;16.10;8.63;;;;;;;-146.25;100.00;52475.66;2079674;28;20046;-76
2023/01/30 03:54:47;;;;;;;16.23;8.18;;;;;;;-146.25;100.00;52469.56;2071643;28;20031;-77
2023/01/30 03:55:50;;;;;;;17.40;8.45;;;;;;;-146.25;100.00;52481.75;2079766;28;20172;-77
2023/01/30 03:56:58;;;;;;;19.13;7.18;;;;;;;-146.25;100.00;52463.50;2080321;28;20057;-77
2023/01/30 03:57:59;;;;;;;14.77;6.97;;;;;;;-146.25;100.00;52504.03;2080054;28;20045;-76
2023/01/30 03:59:04;;;;;;;15.02;7.18;;;;;;;-146.25;100.00;52445.25;2079861;28;20049;-76
2023/01/30 04:00:14;;;;;;;15.82;6.95;;;;;;;-146.25;100.00;52487.81;2080148;28;20826;-76
2023/01/30 04:01:23;;;;;;;16.02;6.18;;;;;;;-146.25;100.00;52463.50;2079867;28;20050;-76
2023/01/30 04:02:25;;;;;;;16.40;6.38;;;;;;;-146.25;100.00;52479.72;2080028;28;20045;-77
2023/01/30 04:03:28;;;;;;;16.95;5.65;;;;;;;-146.25;100.00;52469.56;2079969;28;20093;-76
2023/01/30 04:04:32;;;;;;;20.13;6.00;;;;;;;-146.25;100.00;52451.31;2079115;28;20901;-77
2023/01/30 04:05:35;;;;;;;18.85;5.75;;;;;;;-146.25;100.00;52485.81;2079665;28;20045;-77
2023/01/30 04:06:40;;;;;;;17.23;4.75;;;;;;;-146.25;100.00;52477.69;2080158;28;20168;-77
2023/01/30 04:07:42;;;;;;;15.07;4.80;;;;;;;-146.25;100.00;52455.38;2079338;28;23991;-77
2023/01/30 04:08:45;;;;;;;17.20;4.20;;;;;;;-146.25;100.00;52453.34;2071602;28;20042;-77
2023/01/30 04:09:59;;;;;;;13.63;4.28;;;;;;;-146.25;100.00;52493.91;2075070;28;20049;-76
2023/01/30 04:11:00;;;;;;;12.95;4.07;;;;;;;-146.25;100.00;52465.53;2087832;28;29751;-77
2023/01/30 04:12:02;;;;;;;14.45;4.18;;;;;;;-146.25;100.00;52477.69;2079534;28;20176;-76
2023/01/30 04:13:09;;;;;;;13.95;3.92;;;;;;;-146.25;100.00;52495.94;2080788;28;20105;-77
2023/01/30 04:14:13;;;;;;;13.60;3.95;;;;;;;-146.25;100.00;52473.63;2086767;28;20034;-77
2023/01/30 04:15:41;;;;;;;15.27;3.67;;;;;;;-146.25;100.00;52489.84;2071151;28;20073;-77
2023/01/30 04:17:05;;;;;;;23.52;4.00;;;;;;;-146.25;100.00;52455.38;2080886;28;20044;-77
2023/01/30 04:18:19;;;;;;;17.10;4.00;;;;;;;-146.25;100.00;52497.97;2080345;28;20050;-76
2023/01/30 04:19:39;;;;;;;16.23;4.20;;;;;;;-146.25;100.00;52500.00;2080702;28;20828;-76
2023/01/30 04:20:42;;;;;;;19.08;3.83;;;;;;;-146.25;100.00;52481.75;2079859;28;20045;-76
2023/01/30 04:21:43;;;;;;;15.23;4.43;;;;;;;-146.25;100.00;52457.41;2071482;28;20144;-76
2023/01/30 04:22:46;;;;;;;13.38;4.07;;;;;;;-146.25;100.00;52485.81;2071352;28;20229;-76
2023/01/30 04:23:47;;;;;;;16.23;3.80;;;;;;;-146.25;100.00;52447.28;2071585;28;20050;-76
2023/01/30 04:24:49;;;;;;;19.23;4.05;;;;;;;-146.25;100.00;52493.91;2063159;28;25419;-75
2023/01/30 04:25:51;;;;;;;15.88;3.85;;;;;;;-146.25;100.00;52473.63;2080082;28;20164;-77
2023/01/30 04:26:55;;;;;;;14.63;3.65;;;;;;;-146.25;100.00;52459.44;2079223;28;20050;-76
2023/01/30 04:27:56;;;;;;;17.13;3.90;;;;;;;-146.25;100.00;52477.69;2079440;28;20046;-76
2023/01/30 04:29:03;;;;;;;19.75;3.85;;;;;;;-146.25;100.00;52471.59;2071671;28;20085;-76
2023/01/30 04:30:09;;;;;;;14.05;3.58;;;;;;;-146.25;100.00;52489.84;2072944;28;20097;-76
2023/01/30 04:31:11;;;;;;;17.08;3.30;;;;;;;-146.25;100.00;52467.56;2071397;28;21072;-77
2023/01/30 04:32:16;;;;;;;19.70;3.15;;;;;;;-146.25;100.00;52455.38;2080125;28;20461;-77
2023/01/30 04:33:19;;;;;;;16.15;3.20;;;;;;;-146.25;100.00;52481.75;2079490;28;20049;-77
2023/01/30 04:34:23;;;;;;;17.38;3.00;;;;;;;-146.25;100.00;52493.91;2071699;28;20050;-77
2023/01/30 04:35:26;;;;;;;17.13;2.97;;;;;;;-146.25;100.00;52475.66;2079473;28;20210;-76
2023/01/30 04:36:28;;;;;;;15.93;2.15;;;;;;;-146.25;100.00;52429.03;2079727;28;21273;-76
2023/01/30 04:37:30;;;;;;;13.80;2.53;;;;;;;-146.25;100.00;52475.66;2079505;28;20954;-76
2023/01/30 04:38:34;;;;;;;15.85;2.35;;;;;;;-146.25;100.00;52453.34;2071456;28;20909;-76
2023/01/30 04:39:41;;;;;;;14.25;2.42;;;;;;;-146.25;100.00;52477.69;2080020;28;20064;-76
2023/01/30 04:40:50;;;;;;;17.52;2.30;;;;;;;-146.25;100.00;52455.38;2078973;28;20433;-76
2023/01/30 04:41:53;;;;;;;16.48;2.22;;;;;;;-146.25;99.60;52497.97;2080337;28;20135;-76
2023/01/30 04:42:55;;;;;;;15.23;2.05;;;;;;;-146.25;99.62;52459.44;2087918;28;20037;-76
2023/01/30 04:44:08;;;;;;;14.30;1.80;;;;;;;-146.25;99.05;52504.03;2079952;28;20050;-76
2023/01/30 04:45:19;;;;;;;15.00;1.85;;;;;;;-146.25;99.29;52473.63;2079268;28;20053;-76
2023/01/30 04:46:23;;;;;;;14.32;1.55;;;;;;;-146.25;99.01;52518.25;2079723;28;21083;-76
2023/01/30 04:47:25;;;;;;;13.55;1.70;;;;;;;-146.25;99.06;52483.78;2063183;28;21015;-76
2023/01/30 04:48:30;;;;;;;12.80;1.77;;;;;;;-146.25;99.06;52487.81;2063894;28;20101;-76
2023/01/30 04:49:34;;;;;;;13.45;1.58;;;;;;;-146.25;98.37;52465.53;2080109;28;20052;-76
2023/01/30 04:50:38;;;;;;;12.15;1.60;;;;;;;-146.25;98.20;52481.75;2079469;28;20953;-76
2023/01/30 04:51:40;;;;;;;15.88;1.45;;;;;;;-146.25;98.19;52443.22;2080416;28;20979;-76
2023/01/30 04:52:43;;;;;;;17.40;1.75;;;;;;;-146.25;97.58;52471.59;2072873;28;20061;-76
2023/01/30 04:53:45;;;;;;;14.68;1.70;;;;;;;-146.25;97.75;52477.69;2080849;28;20827;-76
2023/01/30 04:54:47;;;;;;;13.88;1.38;;;;;;;-146.25;97.68;52469.56;2081294;28;20045;-76
2023/01/30 04:55:49;;;;;;;15.45;1.70;;;;;;;-146.25;97.03;52469.56;2072634;28;20045;-75
2023/01/30 04:56:51;;;;;;;17.27;1.90;;;;;;;-146.25;97.35;52477.69;2080902;28;20046;-76
2023/01/30 04:57:53;;;;;;;18.90;2.20;;;;;;;-146.25;96.97;52479.72;2080671;28;20045;-76
2023/01/30 04:58:55;;;;;;;22.20;1.98;;;;;;;-146.25;97.48;52489.84;2073318;28;20148;-76
2023/01/30 04:59:57;;;;;;;16.15;1.70;;;;;;;-146.25;97.15;52457.41;2080416;28;20046;-76
2023/01/30 05:01:30;;;;;;;22.10;2.40;;;;;;;-146.25;97.36;52445.25;2081272;28;20135;-76
2023/01/30 05:02:32;;;;;;;22.35;2.20;;;;;;;-146.25;97.27;52522.28;2080482;28;20053;-76
2023/01/30 05:03:34;;;;;;;15.50;1.88;;;;;;;-146.25;97.15;52431.06;2080445;28;40511;-76
2023/01/30 05:04:38;;;;;;;14.18;1.92;;;;;;;-146.25;97.33;52502.03;2080613;28;36828;-76
2023/01/30 05:05:40;;;;;;;21.08;2.22;;;;;;;-146.25;98.09;52461.47;2081009;28;39199;-76
2023/01/30 05:06:42;;;;;;;16.88;2.05;;;;;;;-146.25;98.47;52477.69;2081852;28;20037;-76
2023/01/30 05:07:44;;;;;;;17.13;2.10;;;;;;;-146.25;98.94;52449.31;2081208;28;37831;-77
2023/01/30 05:08:54;;;;;;;22.75;2.10;;;;;;;-146.25;98.70;52461.47;2080150;28;39910;-76
2023/01/30 05:09:56;;;;;;;22.70;2.10;;;;;;;-146.25;98.67;52485.81;2080302;28;37293;-76